Time;durP1;ratioP1;P1;durP2;ratioP2;P2;SDS_P1;SDS_P2;PMS_P1;PMS_P2;Temp;Humidity;BMP_temperature;BMP_pressure;BME280_temperature;BME280_humidity;BME280_pressure;Samples;Min_cycle;Max_cycle;Signal;HPM_P1;HPM_P2
2023/04/13 00:01:51;;;;;;;13.77;6.18;;;;;;;;;;4934484;28;20039;-68
2023/04/13 00:04:35;;;;;;;15.68;6.95;;;;;;;;;;4918100;28;20704;-66
2023/04/13 00:07:02;;;;;;;10.82;4.75;;;;;;;;;;4920030;28;20042;-68
2023/04/13 00:09:30;;;;;;;9.23;4.97;;;;;;;;;;4922044;28;20105;-64
2023/04/13 00:11:57;;;;;;;10.25;4.78;;;;;;;;;;4919088;28;20043;-65
2023/04/13 00:14:32;;;;;;;13.82;5.65;;;;;;;;;;4949091;28;20128;-66
2023/04/13 00:17:01;;;;;;;10.93;3.67;;;;;;;;;;4918868;28;20043;-66
2023/04/13 00:19:29;;;;;;;9.75;3.63;;;;;;;;;;4920117;28;20138;-66
2023/04/13 00:21:54;;;;;;;12.80;5.00;;;;;;;;;;4921926;28;20054;-66
2023/04/13 00:24:20;;;;;;;10.82;5.40;;;;;;;;;;4920443;28;20431;-64
2023/04/13 00:26:50;;;;;;;8.48;4.63;;;;;;;;;;4918591;28;20055;-67
2023/04/13 00:29:15;;;;;;;9.07;4.63;;;;;;;;;;4920070;28;20078;-65
2023/04/13 00:31:43;;;;;;;10.63;3.50;;;;;;;;;;4920951;28;20036;-68
2023/04/13 00:34:08;;;;;;;14.55;3.50;;;;;;;;;;4922702;28;20042;-68
2023/04/13 00:36:33;;;;;;;12.68;2.05;;;;;;;;;;4919534;28;20126;-66
2023/04/13 00:38:59;;;;;;;15.98;2.58;;;;;;;;;;4921161;28;20050;-65
2023/04/13 00:41:25;;;;;;;9.70;1.52;;;;;;;;;;4920154;28;20480;-66
2023/04/13 00:43:52;;;;;;;16.58;1.42;;;;;;;;;;4922401;28;20407;-70
2023/04/13 00:46:18;;;;;;;14.00;3.03;;;;;;;;;;4922327;28;20162;-68
2023/04/13 00:48:44;;;;;;;17.55;2.45;;;;;;;;;;4920507;28;20071;-68
2023/04/13 00:51:10;;;;;;;18.77;2.08;;;;;;;;;;4920925;28;20035;-66
2023/04/13 00:53:37;;;;;;;10.00;1.42;;;;;;;;;;4936034;28;20040;-67
2023/04/13 00:56:04;;;;;;;14.27;3.80;;;;;;;;;;4921147;28;21974;-66
2023/04/13 00:58:32;;;;;;;17.20;3.20;;;;;;;;;;4918545;28;20043;-66
2023/04/13 01:00:59;;;;;;;17.02;4.60;;;;;;;;;;4915149;28;22395;-66
2023/04/13 01:03:26;;;;;;;16.35;4.05;;;;;;;;;;4921316;28;20043;-66
2023/04/13 01:06:06;;;;;;;15.43;3.30;;;;;;;;;;4920778;28;20054;-67
2023/04/13 01:08:37;;;;;;;18.63;2.47;;;;;;;;;;4918451;28;20572;-66
2023/04/13 01:11:17;;;;;;;14.57;2.05;;;;;;;;;;4919101;28;20133;-65
2023/04/13 01:13:47;;;;;;;15.68;2.75;;;;;;;;;;4951510;28;20086;-67
2023/04/13 01:16:29;;;;;;;24.10;7.05;;;;;;;;;;4919882;28;20035;-67
2023/04/13 01:18:56;;;;;;;11.25;2.70;;;;;;;;;;4918208;28;20281;-65
2023/04/13 01:21:24;;;;;;;16.77;2.08;;;;;;;;;;4917706;28;20123;-67
2023/04/13 01:23:50;;;;;;;12.63;2.22;;;;;;;;;;4920409;28;20701;-67
2023/04/13 01:26:16;;;;;;;23.88;2.92;;;;;;;;;;4916981;28;20100;-66
2023/04/13 01:28:41;;;;;;;24.75;3.20;;;;;;;;;;4915993;28;20078;-65
2023/04/13 01:31:10;;;;;;;14.70;2.50;;;;;;;;;;4918686;28;20178;-66
2023/04/13 01:33:37;;;;;;;15.63;2.70;;;;;;;;;;4913965;28;20035;-65
2023/04/13 01:36:03;;;;;;;21.02;3.65;;;;;;;;;;4920972;28;20245;-66
2023/04/13 01:38:28;;;;;;;18.40;2.63;;;;;;;;;;4917710;28;20485;-67
2023/04/13 01:40:56;;;;;;;27.35;2.90;;;;;;;;;;4918336;28;20035;-66
2023/04/13 01:43:22;;;;;;;12.68;2.30;;;;;;;;;;4919899;28;20027;-65
2023/04/13 01:45:54;;;;;;;18.10;2.38;;;;;;;;;;4918633;28;20281;-66
2023/04/13 01:48:26;;;;;;;13.00;2.33;;;;;;;;;;4917751;28;20040;-65
2023/04/13 01:50:55;;;;;;;19.35;2.53;;;;;;;;;;4918716;28;20521;-64
2023/04/13 01:53:26;;;;;;;19.90;2.92;;;;;;;;;;4920993;28;20039;-65
2023/04/13 01:55:52;;;;;;;17.00;2.20;;;;;;;;;;4918078;28;20114;-65
2023/04/13 01:58:20;;;;;;;18.40;2.45;;;;;;;;;;4919099;28;20043;-66
2023/04/13 02:00:45;;;;;;;17.00;2.15;;;;;;;;;;4947080;28;20055;-65
2023/04/13 02:03:11;;;;;;;36.33;2.88;;;;;;;;;;4920494;28;20082;-67
2023/04/13 02:05:36;;;;;;;29.52;3.00;;;;;;;;;;4917826;28;20174;-68
2023/04/13 02:08:04;;;;;;;15.40;2.30;;;;;;;;;;4912776;28;20868;-65
2023/04/13 02:10:30;;;;;;;13.70;1.75;;;;;;;;;;4917711;28;20271;-66
2023/04/13 02:12:55;;;;;;;21.10;2.25;;;;;;;;;;4918471;28;20073;-65
2023/04/13 02:15:21;;;;;;;13.23;1.92;;;;;;;;;;4919152;28;20044;-64
2023/04/13 02:17:46;;;;;;;10.80;2.00;;;;;;;;;;4918306;28;20527;-65
2023/04/13 02:20:11;;;;;;;16.25;2.20;;;;;;;;;;4917299;28;20047;-65
2023/04/13 02:22:40;;;;;;;17.85;2.10;;;;;;;;;;4946341;28;20050;-65
2023/04/13 02:25:07;;;;;;;19.33;3.22;;;;;;;;;;4919567;28;20292;-66
2023/04/13 02:27:33;;;;;;;20.98;2.88;;;;;;;;;;4917196;28;20399;-65
2023/04/13 02:30:01;;;;;;;13.77;2.17;;;;;;;;;;4918197;28;20058;-65
2023/04/13 02:32:28;;;;;;;18.90;2.80;;;;;;;;;;4915545;28;20063;-65
2023/04/13 02:34:54;;;;;;;16.48;2.58;;;;;;;;;;4918535;28;20059;-68
2023/04/13 02:37:19;;;;;;;21.33;2.70;;;;;;;;;;4902192;28;20051;-66
2023/04/13 02:39:45;;;;;;;14.35;2.70;;;;;;;;;;4936929;28;20054;-66
2023/04/13 02:42:10;;;;;;;13.32;2.35;;;;;;;;;;4918088;28;20105;-65
2023/04/13 02:44:38;;;;;;;15.10;2.72;;;;;;;;;;4929132;28;20055;-66
2023/04/13 02:47:03;;;;;;;16.02;2.50;;;;;;;;;;4911766;28;20459;-65
2023/04/13 02:49:31;;;;;;;18.88;2.40;;;;;;;;;;4917373;28;20085;-65
2023/04/13 02:51:57;;;;;;;15.30;1.80;;;;;;;;;;4916397;28;20048;-65
2023/04/13 02:54:24;;;;;;;14.02;3.20;;;;;;;;;;4901842;28;20050;-65
2023/04/13 02:56:50;;;;;;;15.18;2.10;;;;;;;;;;4916839;28;20551;-66
2023/04/13 02:59:15;;;;;;;13.65;2.50;;;;;;;;;;4913851;28;20104;-66
2023/04/13 03:01:40;;;;;;;17.02;2.45;;;;;;;;;;4912960;28;20768;-66
2023/04/13 03:04:07;;;;;;;15.02;2.50;;;;;;;;;;4917093;28;20054;-68
2023/04/13 03:06:32;;;;;;;19.00;3.00;;;;;;;;;;4933214;28;20066;-67
2023/04/13 03:09:00;;;;;;;13.35;2.85;;;;;;;;;;4912463;28;20132;-67
2023/04/13 03:14:54;;;;;;;15.15;2.60;;;;;;;;;;4994466;28;20209;-66
2023/04/13 03:17:19;;;;;;;18.08;3.70;;;;;;;;;;4995328;28;20037;-67
2023/04/13 03:19:46;;;;;;;15.75;2.72;;;;;;;;;;4989771;28;20305;-67
2023/04/13 03:22:14;;;;;;;17.80;3.00;;;;;;;;;;4979615;28;20049;-66
2023/04/13 03:24:40;;;;;;;18.85;3.10;;;;;;;;;;4994044;28;20074;-68
2023/04/13 03:27:05;;;;;;;10.48;2.72;;;;;;;;;;5017509;28;20147;-68
2023/04/13 03:29:30;;;;;;;24.23;3.38;;;;;;;;;;5018366;28;20556;-68
2023/04/13 03:31:56;;;;;;;20.45;3.10;;;;;;;;;;5019056;28;20047;-68
2023/04/13 03:34:21;;;;;;;18.52;3.10;;;;;;;;;;5015040;28;20044;-68
2023/04/13 03:36:47;;;;;;;13.05;3.25;;;;;;;;;;5018340;28;20232;-67
2023/04/13 03:39:12;;;;;;;16.02;3.08;;;;;;;;;;5019583;28;20151;-67
2023/04/13 03:41:38;;;;;;;16.52;2.90;;;;;;;;;;5017686;28;20913;-68
2023/04/13 03:44:03;;;;;;;15.40;3.22;;;;;;;;;;5017558;28;20041;-68
2023/04/13 03:46:30;;;;;;;17.75;3.42;;;;;;;;;;5014458;28;20141;-68
2023/04/13 03:48:56;;;;;;;24.25;4.18;;;;;;;;;;5017300;28;20479;-67
2023/04/13 03:51:21;;;;;;;21.70;3.15;;;;;;;;;;5014984;28;20428;-68
2023/04/13 03:53:47;;;;;;;12.45;3.08;;;;;;;;;;5016961;28;20845;-68
2023/04/13 03:56:12;;;;;;;19.15;3.90;;;;;;;;;;5013028;28;20524;-67
2023/04/13 03:58:38;;;;;;;18.30;3.20;;;;;;;;;;5015826;28;20112;-69
2023/04/13 04:01:03;;;;;;;20.60;3.55;;;;;;;;;;5017033;28;20489;-69
2023/04/13 04:03:29;;;;;;;15.75;3.03;;;;;;;;;;5016363;28;20482;-67
2023/04/13 04:05:54;;;;;;;16.65;3.53;;;;;;;;;;4982733;28;20594;-69
2023/04/13 04:08:19;;;;;;;20.15;3.25;;;;;;;;;;5011610;28;20642;-70
2023/04/13 04:10:45;;;;;;;14.55;2.70;;;;;;;;;;4995793;28;20244;-68
2023/04/13 04:13:10;;;;;;;15.65;3.42;;;;;;;;;;5022961;28;20422;-69
2023/04/13 04:15:35;;;;;;;14.40;3.22;;;;;;;;;;5036812;28;20428;-67
2023/04/13 04:18:01;;;;;;;15.15;3.58;;;;;;;;;;5014931;28;20296;-68
2023/04/13 04:20:26;;;;;;;14.10;2.92;;;;;;;;;;5018569;28;20527;-67
2023/04/13 04:22:52;;;;;;;16.75;3.17;;;;;;;;;;5038583;28;20051;-67
2023/04/13 04:25:21;;;;;;;14.77;2.92;;;;;;;;;;5040982;28;22027;-65
2023/04/13 04:27:56;;;;;;;16.55;2.90;;;;;;;;;;5017239;28;20036;-66
2023/04/13 04:30:21;;;;;;;12.57;3.35;;;;;;;;;;5041367;28;20066;-68
2023/04/13 04:32:47;;;;;;;18.48;3.33;;;;;;;;;;5039920;28;20471;-66
2023/04/13 04:35:13;;;;;;;17.58;2.70;;;;;;;;;;5040777;28;20498;-69
2023/04/13 04:37:38;;;;;;;14.50;3.13;;;;;;;;;;5020956;28;20105;-69
2023/04/13 04:40:08;;;;;;;14.63;2.72;;;;;;;;;;5040568;28;20047;-68
2023/04/13 04:42:34;;;;;;;9.77;2.50;;;;;;;;;;5037929;28;20828;-70
2023/04/13 04:45:00;;;;;;;15.18;2.83;;;;;;;;;;5020881;28;20577;-67
2023/04/13 04:47:29;;;;;;;9.85;2.17;;;;;;;;;;5037807;28;20490;-67
2023/04/13 04:49:57;;;;;;;15.15;3.25;;;;;;;;;;5043267;28;20039;-67
2023/04/13 04:52:25;;;;;;;14.30;2.85;;;;;;;;;;5040648;28;20064;-68
2023/04/13 04:54:51;;;;;;;11.52;2.83;;;;;;;;;;5039854;28;20032;-68
2023/04/13 04:57:17;;;;;;;15.38;2.10;;;;;;;;;;5019718;28;20063;-69
2023/04/13 04:59:42;;;;;;;19.63;2.50;;;;;;;;;;5038191;28;20343;-68
2023/04/13 05:02:12;;;;;;;16.50;2.70;;;;;;;;;;5020855;28;20370;-68
2023/04/13 05:04:37;;;;;;;14.07;2.50;;;;;;;;;;5019174;28;20051;-66
2023/04/13 05:07:03;;;;;;;14.65;2.42;;;;;;;;;;5020389;28;20466;-68
2023/04/13 05:09:28;;;;;;;17.13;3.10;;;;;;;;;;5035139;28;20400;-69
2023/04/13 05:11:53;;;;;;;21.27;2.60;;;;;;;;;;5039074;28;20335;-65
2023/04/13 05:14:19;;;;;;;15.88;2.60;;;;;;;;;;5013787;28;20488;-69
2023/04/13 05:16:44;;;;;;;20.40;2.72;;;;;;;;;;5039869;28;20290;-69
2023/04/13 05:19:12;;;;;;;17.88;2.40;;;;;;;;;;5040175;28;20043;-71
2023/04/13 05:21:37;;;;;;;16.60;2.50;;;;;;;;;;5002635;28;20123;-68
2023/04/13 05:24:03;;;;;;;10.02;1.88;;;;;;;;;;5049809;28;21974;-69
2023/04/13 05:26:29;;;;;;;10.32;1.70;;;;;;;;;;5041588;28;20131;-69
2023/04/13 05:28:55;;;;;;;14.90;2.45;;;;;;;;;;5041589;28;20518;-68
2023/04/13 05:31:24;;;;;;;14.13;2.67;;;;;;;;;;5042388;28;20091;-69
2023/04/13 05:33:50;;;;;;;15.10;2.38;;;;;;;;;;5042319;28;20036;-67
2023/04/13 05:36:15;;;;;;;17.00;2.55;;;;;;;;;;5044007;28;20693;-66
2023/04/13 05:38:43;;;;;;;12.75;2.70;;;;;;;;;;5043796;28;20877;-67
2023/04/13 05:41:09;;;;;;;13.50;2.00;;;;;;;;;;5027853;28;20039;-66
2023/04/13 05:43:37;;;;;;;15.45;3.00;;;;;;;;;;5040696;28;20036;-67
2023/04/13 05:46:02;;;;;;;13.25;2.75;;;;;;;;;;5026361;28;21040;-67
2023/04/13 05:48:27;;;;;;;19.92;3.20;;;;;;;;;;5043161;28;20039;-66
2023/04/13 05:50:55;;;;;;;17.55;3.20;;;;;;;;;;5045730;28;20047;-67
2023/04/13 05:53:21;;;;;;;15.02;2.75;;;;;;;;;;5042986;28;20042;-69
2023/04/13 05:55:46;;;;;;;16.35;2.90;;;;;;;;;;5019354;28;20040;-66
2023/04/13 05:58:11;;;;;;;15.60;2.85;;;;;;;;;;5044509;28;20115;-66
2023/04/13 06:00:40;;;;;;;20.88;2.65;;;;;;;;;;5044843;28;20051;-66
2023/04/13 06:03:05;;;;;;;23.25;3.15;;;;;;;;;;5021272;28;20046;-69
2023/04/13 06:05:34;;;;;;;19.55;3.70;;;;;;;;;;5042443;28;20414;-68
2023/04/13 06:07:59;;;;;;;18.52;3.40;;;;;;;;;;5042897;28;20938;-69
2023/04/13 06:10:25;;;;;;;13.88;2.90;;;;;;;;;;5044380;28;20050;-70
2023/04/13 06:12:51;;;;;;;25.45;3.22;;;;;;;;;;5020483;28;20682;-65
2023/04/13 06:15:18;;;;;;;20.83;2.60;;;;;;;;;;5044869;28;20073;-67
2023/04/13 06:17:43;;;;;;;26.40;3.13;;;;;;;;;;5040900;28;20481;-67
2023/04/13 06:20:09;;;;;;;27.08;3.72;;;;;;;;;;5042031;28;20120;-68
2023/04/13 06:22:35;;;;;;;15.50;2.83;;;;;;;;;;5019784;28;20036;-66
2023/04/13 06:25:00;;;;;;;14.65;2.58;;;;;;;;;;5040589;28;20044;-68
2023/04/13 06:27:26;;;;;;;17.25;3.63;;;;;;;;;;5022716;28;20686;-66
2023/04/13 06:29:52;;;;;;;15.70;3.05;;;;;;;;;;5024399;28;20172;-68
2023/04/13 06:32:17;;;;;;;18.42;2.80;;;;;;;;;;5025426;28;20093;-68
2023/04/13 06:34:44;;;;;;;21.52;3.28;;;;;;;;;;5016530;28;20318;-67
2023/04/13 06:37:10;;;;;;;17.88;2.97;;;;;;;;;;5029997;28;20067;-67
2023/04/13 06:39:36;;;;;;;14.63;3.17;;;;;;;;;;5043844;28;20036;-66
2023/04/13 06:42:02;;;;;;;17.55;2.85;;;;;;;;;;5042184;28;20087;-67
2023/04/13 06:44:27;;;;;;;14.75;2.40;;;;;;;;;;5046960;28;20094;-67
2023/04/13 06:46:52;;;;;;;21.35;3.60;;;;;;;;;;5053201;28;20086;-71
2023/04/13 06:49:18;;;;;;;17.88;3.17;;;;;;;;;;5030757;28;20249;-68
2023/04/13 06:51:43;;;;;;;15.23;2.95;;;;;;;;;;5048255;28;20036;-70
2023/04/13 06:54:08;;;;;;;25.02;3.17;;;;;;;;;;5049774;28;20201;-68
2023/04/13 06:56:33;;;;;;;20.67;3.40;;;;;;;;;;5010707;28;20040;-65
2023/04/13 06:59:01;;;;;;;21.88;3.40;;;;;;;;;;5043836;28;20564;-63
2023/04/13 07:01:29;;;;;;;19.52;2.88;;;;;;;;;;5039625;28;20248;-65
2023/04/13 07:03:55;;;;;;;15.98;3.30;;;;;;;;;;5028827;28;20631;-66
2023/04/13 07:06:25;;;;;;;22.27;3.60;;;;;;;;;;5027010;28;20459;-67
2023/04/13 07:08:50;;;;;;;24.02;4.32;;;;;;;;;;5046718;28;20515;-69
2023/04/13 07:11:18;;;;;;;21.80;4.28;;;;;;;;;;5026910;28;20098;-67
2023/04/13 07:13:43;;;;;;;13.63;2.35;;;;;;;;;;5024778;28;20325;-67
2023/04/13 07:16:10;;;;;;;21.13;3.13;;;;;;;;;;5039806;28;20441;-65
2023/04/13 07:18:40;;;;;;;30.02;3.60;;;;;;;;;;5035838;28;20089;-66
2023/04/13 07:21:08;;;;;;;24.10;3.42;;;;;;;;;;5037423;28;20314;-66
2023/04/13 07:23:34;;;;;;;26.52;3.53;;;;;;;;;;5036274;28;20945;-65
2023/04/13 07:26:00;;;;;;;19.83;3.60;;;;;;;;;;5038629;28;20373;-65
2023/04/13 07:28:26;;;;;;;31.95;4.78;;;;;;;;;;5037334;28;20934;-65
2023/04/13 07:30:54;;;;;;;29.77;5.32;;;;;;;;;;5040345;28;20058;-67
2023/04/13 07:33:19;;;;;;;32.90;5.15;;;;;;;;;;5039720;28;20036;-68
2023/04/13 07:35:45;;;;;;;27.08;4.72;;;;;;;;;;5036036;28;20506;-65
2023/04/13 07:38:10;;;;;;;33.97;5.75;;;;;;;;;;5037859;28;20066;-65
2023/04/13 07:40:35;;;;;;;33.50;4.93;;;;;;;;;;5021880;28;20060;-67
2023/04/13 07:43:00;;;;;;;33.00;4.60;;;;;;;;;;5018333;28;20123;-66
2023/04/13 07:45:32;;;;;;;29.88;5.60;;;;;;;;;;5037294;28;20721;-67
2023/04/13 07:47:57;;;;;;;31.05;4.40;;;;;;;;;;5037026;28;20608;-67
2023/04/13 07:50:25;;;;;;;34.65;5.55;;;;;;;;;;5015788;28;20069;-67
2023/04/13 07:52:51;;;;;;;32.65;5.07;;;;;;;;;;5039461;28;20500;-66
2023/04/13 07:55:16;;;;;;;33.72;5.05;;;;;;;;;;5034760;28;21465;-65
2023/04/13 07:57:41;;;;;;;21.85;4.43;;;;;;;;;;5021719;28;20696;-66
2023/04/13 08:00:07;;;;;;;25.95;4.53;;;;;;;;;;5022418;28;20040;-68
2023/04/13 08:02:32;;;;;;;25.05;4.55;;;;;;;;;;5020207;28;20039;-66
2023/04/13 08:04:58;;;;;;;19.80;3.70;;;;;;;;;;5042040;28;20043;-67
2023/04/13 08:07:23;;;;;;;21.23;4.03;;;;;;;;;;5044495;28;20036;-64
2023/04/13 08:09:51;;;;;;;27.00;4.10;;;;;;;;;;5043478;28;20034;-66
2023/04/13 08:12:21;;;;;;;28.83;4.82;;;;;;;;;;5046304;28;20124;-67
2023/04/13 08:14:47;;;;;;;25.08;3.97;;;;;;;;;;5027322;28;20564;-67
2023/04/13 08:17:12;;;;;;;27.27;4.60;;;;;;;;;;5046388;28;20047;-68
2023/04/13 08:19:38;;;;;;;27.52;4.50;;;;;;;;;;5045212;28;20151;-65
2023/04/13 08:22:03;;;;;;;32.58;4.68;;;;;;;;;;5023388;28;20036;-67
2023/04/13 08:24:31;;;;;;;26.40;4.03;;;;;;;;;;5023284;28;20170;-67
2023/04/13 08:26:57;;;;;;;29.50;4.85;;;;;;;;;;5024820;28;22515;-68
2023/04/13 08:29:26;;;;;;;39.00;5.43;;;;;;;;;;5039940;28;20036;-68
2023/04/13 08:31:52;;;;;;;26.35;4.13;;;;;;;;;;5046541;28;20040;-68
2023/04/13 08:34:17;;;;;;;28.88;4.30;;;;;;;;;;5043217;28;20055;-69
2023/04/13 08:36:45;;;;;;;24.10;4.93;;;;;;;;;;5047146;28;20044;-66
2023/04/13 08:39:11;;;;;;;29.27;5.43;;;;;;;;;;5014444;28;20046;-69
2023/04/13 08:41:37;;;;;;;26.35;5.07;;;;;;;;;;5028073;28;20040;-67
2023/04/13 08:44:05;;;;;;;29.25;5.28;;;;;;;;;;5028755;28;20028;-66
2023/04/13 08:46:30;;;;;;;25.80;4.30;;;;;;;;;;5045768;28;20051;-69
2023/04/13 08:48:57;;;;;;;34.95;5.18;;;;;;;;;;5042662;28;20488;-66
2023/04/13 08:51:22;;;;;;;25.67;4.13;;;;;;;;;;5044840;28;20873;-66
2023/04/13 08:53:48;;;;;;;27.02;4.47;;;;;;;;;;5043065;28;20081;-66
2023/04/13 08:56:14;;;;;;;27.33;4.50;;;;;;;;;;5047724;28;20050;-67
2023/04/13 08:58:41;;;;;;;32.50;5.03;;;;;;;;;;5043046;28;20212;-70
2023/04/13 09:01:07;;;;;;;20.30;3.45;;;;;;;;;;5043171;28;20036;-68
2023/04/13 09:03:35;;;;;;;24.70;4.57;;;;;;;;;;5034790;28;20090;-68
2023/04/13 09:06:06;;;;;;;23.92;3.30;;;;;;;;;;5017344;28;20127;-65
2023/04/13 09:08:34;;;;;;;28.98;5.88;;;;;;;;;;5039284;28;20063;-67
2023/04/13 09:11:00;;;;;;;19.27;3.63;;;;;;;;;;5020541;28;20110;-66
2023/04/13 09:13:25;;;;;;;24.13;4.10;;;;;;;;;;5040183;28;20487;-68
2023/04/13 09:15:53;;;;;;;21.42;3.60;;;;;;;;;;5038287;28;20032;-66
2023/04/13 09:18:18;;;;;;;23.80;4.05;;;;;;;;;;5037293;28;20390;-67
2023/04/13 09:20:53;;;;;;;25.55;4.40;;;;;;;;;;5037429;28;20274;-68
2023/04/13 09:23:19;;;;;;;31.17;4.50;;;;;;;;;;5021730;28;20293;-66
2023/04/13 09:25:45;;;;;;;22.65;3.95;;;;;;;;;;5018834;28;20281;-68
2023/04/13 09:28:17;;;;;;;23.38;3.95;;;;;;;;;;5044403;28;20044;-71
2023/04/13 09:30:45;;;;;;;22.52;3.40;;;;;;;;;;5039097;28;20046;-70
2023/04/13 09:33:11;;;;;;;26.02;4.70;;;;;;;;;;5042437;28;20060;-67
2023/04/13 09:35:38;;;;;;;33.72;5.00;;;;;;;;;;5041007;28;20878;-66
2023/04/13 09:38:05;;;;;;;32.80;4.32;;;;;;;;;;5045187;28;20070;-67
2023/04/13 09:40:36;;;;;;;24.15;4.65;;;;;;;;;;5021593;28;20034;-68
2023/04/13 09:43:03;;;;;;;25.95;4.20;;;;;;;;;;5038275;28;21177;-68
2023/04/13 09:45:38;;;;;;;21.67;4.13;;;;;;;;;;5037161;28;20048;-67
2023/04/13 09:48:05;;;;;;;24.02;4.13;;;;;;;;;;5026609;28;20825;-65
2023/04/13 09:50:32;;;;;;;23.60;3.92;;;;;;;;;;5045131;28;20032;-69
2023/04/13 09:53:02;;;;;;;21.67;4.25;;;;;;;;;;5043407;28;20040;-67
2023/04/13 09:55:27;;;;;;;26.67;4.05;;;;;;;;;;5027837;28;20036;-69
2023/04/13 09:57:53;;;;;;;25.45;4.30;;;;;;;;;;5029535;28;20129;-66
2023/04/13 10:00:24;;;;;;;22.90;3.70;;;;;;;;;;5024689;28;20036;-66
2023/04/13 10:02:50;;;;;;;28.10;4.25;;;;;;;;;;5045216;28;20036;-67
2023/04/13 10:05:16;;;;;;;21.27;3.45;;;;;;;;;;5031829;28;20036;-66
2023/04/13 10:07:45;;;;;;;17.73;3.40;;;;;;;;;;5046487;28;20067;-68
2023/04/13 10:10:11;;;;;;;21.92;3.90;;;;;;;;;;5046558;28;20041;-66
2023/04/13 10:12:49;;;;;;;24.20;4.00;;;;;;;;;;5040149;28;20055;-65
2023/04/13 10:15:23;;;;;;;22.33;3.70;;;;;;;;;;5027648;28;20135;-68
2023/04/13 10:18:01;;;;;;;26.63;4.63;;;;;;;;;;5019027;28;20418;-68
2023/04/13 10:20:27;;;;;;;25.10;4.00;;;;;;;;;;5017766;28;20040;-67
2023/04/13 10:22:52;;;;;;;20.13;3.78;;;;;;;;;;5020375;28;20185;-66
2023/04/13 10:25:18;;;;;;;28.23;4.10;;;;;;;;;;5022636;28;20045;-68
2023/04/13 10:27:54;;;;;;;25.45;4.10;;;;;;;;;;5005485;28;20040;-66
2023/04/13 10:30:20;;;;;;;22.50;3.83;;;;;;;;;;5001774;28;20037;-67
2023/04/13 10:32:46;;;;;;;21.83;4.82;;;;;;;;;;5002296;28;20039;-69
2023/04/13 10:35:12;;;;;;;26.77;4.53;;;;;;;;;;5002869;28;20029;-68
2023/04/13 10:37:40;;;;;;;22.75;4.00;;;;;;;;;;5019423;28;20075;-66
2023/04/13 10:40:09;;;;;;;15.70;3.28;;;;;;;;;;5020394;28;20035;-67
2023/04/13 10:42:52;;;;;;;33.85;3.83;;;;;;;;;;5016760;28;20808;-67
2023/04/13 10:45:25;;;;;;;21.20;3.95;;;;;;;;;;5018556;28;20047;-65
2023/04/13 10:47:51;;;;;;;22.83;3.90;;;;;;;;;;5020142;28;22015;-66
2023/04/13 10:50:17;;;;;;;24.33;4.28;;;;;;;;;;5018483;28;20032;-67
2023/04/13 10:52:56;;;;;;;24.48;4.15;;;;;;;;;;5021059;28;20100;-66
2023/04/13 10:55:25;;;;;;;15.77;3.20;;;;;;;;;;5003538;28;20469;-66
2023/04/13 10:57:50;;;;;;;25.17;3.85;;;;;;;;;;5018487;28;20070;-66
2023/04/13 11:00:20;;;;;;;23.95;3.65;;;;;;;;;;5016815;28;20037;-66
2023/04/13 11:02:45;;;;;;;22.80;3.83;;;;;;;;;;5000460;28;20036;-65
2023/04/13 11:05:14;;;;;;;20.65;3.58;;;;;;;;;;5016278;28;20091;-66
2023/04/13 11:07:41;;;;;;;25.88;4.53;;;;;;;;;;5017730;28;20040;-64
2023/04/13 11:10:06;;;;;;;26.00;4.72;;;;;;;;;;5013503;28;20244;-65
2023/04/13 11:12:32;;;;;;;24.77;3.78;;;;;;;;;;5019036;28;20033;-65
2023/04/13 11:14:57;;;;;;;27.00;5.25;;;;;;;;;;5013082;28;20048;-66
2023/04/13 11:17:23;;;;;;;21.33;4.55;;;;;;;;;;5024180;28;20043;-66
2023/04/13 11:19:49;;;;;;;26.55;4.90;;;;;;;;;;5020435;28;20109;-67
2023/04/13 11:22:16;;;;;;;29.13;4.70;;;;;;;;;;5020194;28;20082;-64
2023/04/13 11:24:44;;;;;;;22.83;3.92;;;;;;;;;;5015682;28;20046;-66
2023/04/13 11:27:16;;;;;;;20.38;3.88;;;;;;;;;;5012818;28;20041;-66
2023/04/13 11:29:41;;;;;;;28.08;4.65;;;;;;;;;;5019522;28;20037;-65
2023/04/13 11:32:14;;;;;;;17.75;3.47;;;;;;;;;;5020134;28;20060;-68
2023/04/13 11:34:39;;;;;;;26.20;3.80;;;;;;;;;;5009154;28;20035;-67
2023/04/13 11:37:06;;;;;;;24.67;3.70;;;;;;;;;;5022332;28;20068;-67
2023/04/13 11:39:33;;;;;;;20.38;3.60;;;;;;;;;;5025398;28;20024;-66
2023/04/13 11:42:03;;;;;;;20.52;3.97;;;;;;;;;;5025466;28;20132;-68
2023/04/13 11:44:28;;;;;;;17.92;3.72;;;;;;;;;;5026616;28;20036;-68
2023/04/13 11:46:55;;;;;;;18.83;4.07;;;;;;;;;;5023319;28;20033;-69
2023/04/13 11:49:20;;;;;;;21.58;4.65;;;;;;;;;;5018762;28;20089;-65
2023/04/13 11:51:47;;;;;;;28.10;4.00;;;;;;;;;;5022663;28;20888;-68
2023/04/13 11:54:16;;;;;;;22.58;3.75;;;;;;;;;;5023223;28;20786;-67
2023/04/13 11:56:41;;;;;;;25.60;3.92;;;;;;;;;;5020578;28;22466;-68
2023/04/13 11:59:07;;;;;;;18.67;3.58;;;;;;;;;;5020884;28;20028;-68
2023/04/13 12:01:33;;;;;;;23.52;3.83;;;;;;;;;;5016799;28;20031;-68
2023/04/13 12:04:02;;;;;;;26.00;3.88;;;;;;;;;;5021101;28;20031;-67
2023/04/13 12:06:28;;;;;;;24.92;4.22;;;;;;;;;;5024905;28;20041;-67
2023/04/13 12:08:57;;;;;;;24.10;4.20;;;;;;;;;;5022475;28;20040;-67
2023/04/13 12:11:24;;;;;;;23.17;3.85;;;;;;;;;;5019718;28;20043;-67
2023/04/13 12:13:52;;;;;;;19.00;3.38;;;;;;;;;;5032170;28;20040;-67
2023/04/13 12:16:24;;;;;;;26.20;3.65;;;;;;;;;;5026393;28;20058;-67
2023/04/13 12:18:49;;;;;;;18.77;3.28;;;;;;;;;;5042040;28;20042;-68
2023/04/13 12:21:15;;;;;;;23.25;3.72;;;;;;;;;;5040843;28;20318;-70
2023/04/13 12:23:50;;;;;;;21.52;3.75;;;;;;;;;;5038289;28;20652;-68
2023/04/13 12:26:15;;;;;;;26.10;3.95;;;;;;;;;;5039577;28;20083;-67
2023/04/13 12:28:43;;;;;;;26.13;4.57;;;;;;;;;;5042531;28;20043;-66
2023/04/13 12:31:10;;;;;;;22.88;3.55;;;;;;;;;;5019736;28;20032;-67
2023/04/13 12:33:36;;;;;;;22.77;3.55;;;;;;;;;;5041701;28;20279;-68
2023/04/13 12:36:02;;;;;;;26.35;4.35;;;;;;;;;;5043328;28;20047;-68
2023/04/13 12:38:29;;;;;;;25.75;4.05;;;;;;;;;;5023524;28;20043;-68
2023/04/13 12:40:58;;;;;;;18.98;3.75;;;;;;;;;;5045899;28;20139;-66
2023/04/13 12:43:24;;;;;;;21.83;3.72;;;;;;;;;;5007997;28;20036;-69
2023/04/13 12:45:50;;;;;;;25.40;4.05;;;;;;;;;;5021654;28;20040;-68
2023/04/13 12:48:18;;;;;;;27.17;3.83;;;;;;;;;;5023102;28;20045;-68
2023/04/13 12:50:43;;;;;;;29.30;4.35;;;;;;;;;;5041466;28;20147;-68
2023/04/13 12:53:10;;;;;;;20.75;4.07;;;;;;;;;;5016993;28;20109;-68
2023/04/13 12:55:38;;;;;;;22.40;4.18;;;;;;;;;;5016729;28;20032;-69
2023/04/13 12:58:04;;;;;;;26.35;4.30;;;;;;;;;;5043968;28;20162;-69
2023/04/13 13:00:29;;;;;;;23.38;3.35;;;;;;;;;;5040903;28;20028;-68
2023/04/13 13:02:54;;;;;;;17.52;3.65;;;;;;;;;;5039849;28;20040;-69
2023/04/13 13:05:19;;;;;;;31.25;4.03;;;;;;;;;;5041027;28;20048;-68
2023/04/13 13:07:45;;;;;;;21.20;3.45;;;;;;;;;;5039790;28;20025;-67
2023/04/13 13:10:10;;;;;;;29.80;4.55;;;;;;;;;;5041554;28;20052;-69
2023/04/13 13:12:35;;;;;;;25.35;4.15;;;;;;;;;;5041286;28;20109;-69
2023/04/13 13:15:06;;;;;;;29.33;4.78;;;;;;;;;;5042011;28;20064;-68
2023/04/13 13:17:31;;;;;;;22.70;3.90;;;;;;;;;;5019312;28;20939;-69
2023/04/13 13:19:56;;;;;;;24.73;4.10;;;;;;;;;;5041108;28;20093;-68
2023/04/13 13:22:22;;;;;;;28.42;4.88;;;;;;;;;;5006188;28;20144;-69
2023/04/13 13:24:47;;;;;;;27.33;4.43;;;;;;;;;;5019291;28;20112;-68
2023/04/13 13:27:12;;;;;;;27.73;4.70;;;;;;;;;;5040965;28;20040;-69
2023/04/13 13:29:38;;;;;;;26.52;4.50;;;;;;;;;;5026136;28;20994;-67
2023/04/13 13:32:04;;;;;;;28.02;4.20;;;;;;;;;;5022648;28;20364;-68
2023/04/13 13:34:29;;;;;;;22.38;4.32;;;;;;;;;;5022078;28;21015;-68
2023/04/13 13:36:55;;;;;;;30.38;4.95;;;;;;;;;;5021106;28;21002;-68
2023/04/13 13:39:21;;;;;;;24.63;3.70;;;;;;;;;;5041411;28;20060;-63
2023/04/13 13:41:47;;;;;;;20.90;3.58;;;;;;;;;;5042765;28;20754;-66
2023/04/13 13:44:12;;;;;;;26.75;4.00;;;;;;;;;;5043233;28;20036;-67
2023/04/13 13:46:37;;;;;;;26.55;4.20;;;;;;;;;;5041402;28;20044;-67
2023/04/13 13:49:03;;;;;;;26.75;4.68;;;;;;;;;;5015560;28;20032;-66
2023/04/13 13:51:30;;;;;;;26.23;4.80;;;;;;;;;;5018719;28;20042;-65
2023/04/13 13:53:55;;;;;;;27.25;4.15;;;;;;;;;;5035399;28;20202;-66
2023/04/13 13:56:21;;;;;;;31.85;5.50;;;;;;;;;;5037954;28;20040;-63
2023/04/13 13:58:46;;;;;;;24.67;4.07;;;;;;;;;;5038414;28;20032;-64
2023/04/13 14:01:11;;;;;;;28.17;4.68;;;;;;;;;;5034076;28;20080;-66
2023/04/13 14:03:37;;;;;;;26.05;4.28;;;;;;;;;;5034600;28;20120;-67
2023/04/13 14:06:02;;;;;;;28.13;4.88;;;;;;;;;;5041877;28;21343;-65
2023/04/13 14:08:27;;;;;;;32.42;5.00;;;;;;;;;;5026645;28;20032;-67
2023/04/13 14:10:53;;;;;;;31.92;5.10;;;;;;;;;;5035170;28;21007;-66
2023/04/13 14:13:18;;;;;;;22.92;3.80;;;;;;;;;;5037663;28;20197;-64
2023/04/13 14:15:44;;;;;;;24.83;4.10;;;;;;;;;;5035790;28;20063;-65
2023/04/13 14:18:09;;;;;;;28.67;4.78;;;;;;;;;;5035935;28;20032;-66
2023/04/13 14:20:37;;;;;;;23.80;5.30;;;;;;;;;;5036601;28;20043;-65
2023/04/13 14:23:05;;;;;;;27.05;5.13;;;;;;;;;;5036991;28;20119;-65
2023/04/13 14:25:33;;;;;;;24.73;4.72;;;;;;;;;;5037951;28;20066;-65
2023/04/13 14:27:58;;;;;;;28.75;4.80;;;;;;;;;;5016562;28;20092;-65
2023/04/13 14:30:27;;;;;;;29.08;4.13;;;;;;;;;;5000039;28;20521;-67
2023/04/13 14:32:55;;;;;;;25.42;4.43;;;;;;;;;;5005599;28;20478;-66